Date,TemperatureHighF,TemperatureAvgF,TemperatureLowF,DewpointHighF,DewpointAvgF,DewpointLowF,HumidityHigh,HumidityAvg,HumidityLow,PressureMaxIn,PressureMinIn,WindSpeedMaxMPH,WindSpeedAvgMPH,GustSpeedMaxMPH,PrecipitationSumIn
2013-12-1,45.0,37.2,30.8,38.2,30.9,27.1,87,78,62,30.17,30.06,8,3,12,0.00
2013-12-2,36.4,33.0,28.9,32.2,30.2,27.0,95,89,82,30.06,29.90,7,3,10,0.03
2013-12-3,48.6,41.3,33.5,46.7,40.0,32.2,97,95,92,29.90,29.80,10,6,14,0.12
2013-12-4,59.7,51.3,45.2,57.4,50.2,44.1,100,96,91,29.86,29.65,15,9,21,0.00
2013-12-5,59.6,35.3,25.6,57.0,30.7,20.0,92,83,77,30.27,29.67,20,12,30,0.01
2013-12-6,27.4,25.7,22.9,22.6,20.3,15.2,86,80,72,30.52,30.24,9,3,15,0.00
2013-12-7,24.6,19.3,14.7,17.3,13.7,11.3,89,79,64,30.72,30.52,11,3,17,0.00
2013-12-8,25.7,21.2,15.2,24.7,17.1,12.1,96,84,70,30.65,30.06,11,6,19,0.00
2013-12-9,27.5,21.9,13.7,26.2,17.8,5.7,96,84,69,30.28,30.01,22,12,33,0.00
2013-12-10,22.9,13.7,1.9,13.9,6.4,-2.8,82,73,62,30.39,30.15,24,11,36,0.00
2013-12-11,23.6,16.5,7.3,19.8,11.7,1.9,92,81,68,30.60,30.38,10,5,19,0.00
2013-12-12,20.2,10.3,-3.9,12.2,3.2,-7.8,84,73,56,30.63,30.37,17,10,29,0.00
2013-12-13,32.5,21.8,13.4,25.1,15.2,7.4,95,76,54,30.37,30.22,10,4,14,0.00
2013-12-14,26.2,23.8,20.1,25.1,22.6,18.1,96,95,92,30.25,29.90,11,7,16,0.00
2013-12-15,24.9,16.1,8.5,23.2,12.8,4.9,94,87,77,30.20,29.98,18,9,26,0.00
2013-12-16,20.2,14.9,8.7,16.3,11.6,5.4,94,87,75,30.27,30.11,8,3,11,0.00
2013-12-17,27.0,20.9,16.5,25.2,19.3,15.1,95,93,87,30.16,30.04,17,9,24,0.00
2013-12-18,34.9,22.1,14.4,24.3,16.2,11.8,92,79,63,30.30,30.00,19,9,26,0.00
2013-12-19,44.5,40.1,35.0,41.5,34.9,24.4,94,82,65,30.05,29.90,19,10,24,0.01
2013-12-20,51.3,44.6,39.7,51.3,44.1,39.7,100,98,89,29.90,29.74,14,6,17,0.25
2013-12-21,39.3,34.3,32.7,39.3,34.3,32.7,100,100,100,29.88,29.57,15,6,29,1.20
2013-12-22,34.9,33.1,30.1,34.9,33.1,29.6,100,100,98,30.11,29.52,18,8,30,0.17
2013-12-23,30.1,24.5,20.9,29.6,17.2,-99.9,98,87,83,30.42,30.11,16,-35,26,0.00
2013-12-24,17.5,11.5,1.8,13.0,7.6,-1.7,89,84,78,30.66,30.57,11,6,26,0.00
2013-12-25,25.8,22.0,16.0,24.8,18.6,12.8,96,87,81,30.56,30.19,16,9,19,0.00
2013-12-26,32.3,25.5,17.4,27.3,21.5,14.4,97,85,73,30.39,30.17,18,10,28,0.00
2013-12-27,40.4,35.1,28.6,33.6,30.3,26.3,91,83,75,30.40,30.21,16,9,25,0.00
2013-12-28,47.5,40.6,35.0,37.7,33.7,31.1,87,77,66,30.22,29.96,16,11,31,0.00
2013-12-29,40.6,33.7,22.7,33.9,28.4,19.8,93,81,66,30.14,29.83,12,6,18,0.00
2013-12-30,22.6,18.0,13.4,19.6,12.8,8.8,88,80,68,30.36,30.14,10,5,17,0.00
2013-12-31,15.4,13.0,7.4,13.2,9.4,4.3,92,85,74,30.46,30.24,13,7,25,0.00